Weather observations for the past three days for
Bloomington, Monroe County Airport
Imperial (Metric)
Date Time (edt) Wind (mph) Vis. (mi.) Weather Sky Cond. Temperature (ºF) Relative Humidity Wind Chill (°F) Heat Index (°F) Pressure Precipitation (in)
Air Dwpt 6 hour altimeter (in) sea level (mb) 1 hr 3 hr 6 hr
Max. Min.
05 04:53 Calm 10.00 Fair CLR 75 73 94% 73 29.93 1012.5
05 03:53 Calm 10.00 Fair CLR 73.9 73 97% 29.92 1012.2
05 02:53 Calm 10.00 Fair CLR 75 73.9 96% 73 29.94 1012.7
05 01:53 Calm 10.00 Fair CLR 75 73.9 84 73.9 96% 73 29.95 1013.1
05 00:53 Calm 10.00 Mostly Cloudy BKN070 BKN085 75.9 73.9 94% 75 29.96 1013.5
04 23:53 Calm 10.00 Fair CLR 75 73.9 96% 73 29.96 1013.6
04 22:53 Calm 10.00 Fair CLR 77 73.9 90% 78 29.96 1013.7
04 21:53 Calm 10.00 Fair CLR 79 73.9 85% 83 29.96 1013.5
04 20:53 Calm 10.00 Fair CLR 79 75.9 90% 83 29.95 1013.1
04 19:53 Calm 10.00 Fair CLR 84 77 95 84 80% 94 29.94 1012.9
04 18:53 SW 3 10.00 Fair CLR 91.9 73.9 56% 102 29.94 1012.8
04 17:53 Vrbl 5 10.00 Fair CLR 93.9 71.1 48% 101 29.94 1012.8
04 16:53 Vrbl 5 10.00 Fair CLR 93.9 72 49% 102 29.96 1013.4
04 15:53 W 6 10.00 Fair CLR 95 72 47% 103 29.98 1014.0
04 14:53 W 6 10.00 A Few Clouds FEW055 93.9 73 51% 103 30.01 1015.0
04 13:53 W 6 10.00 Fair CLR 93 72 93 73.9 50% 101 30.02 1015.7
04 12:53 W 6 10.00 Fair CLR 91.9 73.9 56% 102 30.03 1016.0
04 11:53 W 7 10.00 Fair CLR 90 73.9 59% 99 30.03 1016.1
04 10:53 W 8 10.00 Fair CLR 87.1 73 63% 95 30.03 1015.8
04 09:53 W 7 10.00 Fair CLR 84.9 72 65% 91 30.03 1015.9
04 08:53 SW 3 10.00 Fair CLR 80.1 73 79% 84 30.03 1015.9
04 07:53 Calm 10.00 Fair CLR 73.9 71.1 75.9 70 91% 30 1015.0
04 06:53 Calm 9.00 Fair CLR 71.1 71.1 100% 30 1014.8
04 05:53 Calm 10.00 Fair CLR 73 71.1 94% 29.99 1014.6
04 04:53 Calm 10.00 Fair CLR 73 72 96% 29.99 1014.5
04 03:53 Calm 10.00 Fair CLR 73.9 72 94% 29.99 1014.5
04 02:53 Calm 10.00 Fair CLR 75.9 72 88% 76 30 1014.7
04 01:53 Calm 10.00 Fair CLR 73 73 86 73 100% 30 1014.9
04 00:53 Calm 10.00 Fair CLR 75.9 73 91% 76 30 1014.7
03 23:53 Calm 10.00 Fair CLR 75.9 73.9 94% 75 29.99 1014.5
03 22:53 SE 3 10.00 Fair CLR 81 73 77% 86 30 1014.7
03 21:53 Calm 10.00 Fair CLR 79 73.9 85% 83 29.99 1014.7
03 20:53 Calm 10.00 Fair CLR 81 75 82% 87 29.98 1014.3
03 19:53 S 6 10.00 Fair CLR 86 73.9 95 86 67% 94 29.96 1013.7
03 18:53 S 6 10.00 Fair CLR 91 72 54% 99 29.96 1013.6
03 17:53 S 6 10.00 Fair CLR 93 71.1 49% 100 29.96 1013.6
03 16:53 W 6 10.00 A Few Clouds FEW065 93.9 70 46% 100 29.97 1014.0
03 15:53 W 8 10.00 Fair CLR 93.9 70 46% 100 29.99 1014.4
03 14:53 W 7 10.00 Fair CLR 93 71.1 49% 100 30.01 1015.0
03 13:53 SW 8 10.00 Fair CLR 91.9 71.1 93 71.1 51% 99 30.02 1015.5
03 12:53 SW 8 10.00 Fair CLR 91 73 56% 100 30.04 1016.0
03 11:53 W 5 10.00 Fair CLR 89.1 73.9 61% 98 30.05 1016.4
03 10:53 W 8 10.00 Fair CLR 86 72 63% 92 30.04 1016.4
03 09:53 SW 6 10.00 Fair CLR 82.9 73 72% 89 30.05 1016.5
03 08:53 S 3 10.00 Fair CLR 79 72 79% 82 30.06 1016.8
03 07:53 Calm 9.00 Fair CLR 71.1 70 75.9 70 96% 30.05 1016.8
03 06:53 Calm 9.00 Fair CLR 70 69.1 97% 30.04 1016.2
03 05:53 Calm 10.00 Fair CLR 71.1 71.1 100% 30.03 1016.0
03 04:53 Calm 10.00 Fair CLR 72 71.1 97% 30.03 1016.0
03 03:53 Calm 10.00 Fair CLR 73.9 72 94% 30.03 1015.7
03 02:53 Calm 10.00 Fair CLR 73.9 72 94% 30.02 1015.6
03 01:53 Calm 10.00 Fair CLR 75 73 87.1 75 94% 73 30.02 1015.6
03 00:53 SW 5 10.00 Fair CLR 79 72 79% 82 30.02 1015.4
02 23:53 S 7 10.00 Fair CLR 81 72 74% 85 30.01 1015.3
02 22:53 S 5 10.00 Fair CLR 80.1 73 79% 84 30.02 1015.4
02 21:53 S 7 10.00 Fair CLR 82.9 73 72% 89 30.01 1015.3
02 20:53 S 5 10.00 Fair CLR 84 73.9 72% 91 30 1015.0
02 19:53 S 6 10.00 Fair CLR 87.1 73.9 93.9 87.1 65% 95 30 1015.1
02 18:53 S 6 10.00 A Few Clouds FEW070 91 73.9 57% 101 30 1015.0
02 17:53 S 9 10.00 A Few Clouds FEW065 91.9 72 52% 100 30.01 1015.2
02 16:53 S 9 10.00 A Few Clouds FEW060 93 73 52% 102 30.02 1015.4
02 15:53 SW 6 10.00 Fair CLR 93.9 71.1 48% 101 30.03 1015.8
02 14:53 Vrbl 7 10.00 A Few Clouds FEW055 93 73 52% 102 30.05 1016.4
02 13:53 SW 9 10.00 Fair CLR 91.9 72 91.9 70 52% 100 30.06 1016.8
02 12:53 SW 9 10.00 Fair CLR 90 72 56% 97 30.08 1017.5
02 11:53 SW 9 10.00 Fair CLR 89.1 73.9 61% 98 30.09 1017.8
02 10:53 SW 8 10.00 Fair CLR 86 73.9 67% 94 30.08 1017.7
02 09:53 SW 7 10.00 Fair CLR 82.9 73 72% 89 30.09 1018.1
02 08:53 SW 5 10.00 Fair CLR 79 73 82% 82 30.09 1018.0
02 07:53 Calm 10.00 Fair CLR 70 69.1 77 70 97% 30.08 1017.9
02 06:53 Calm 10.00 Fair CLR 71.1 69.1 94% 30.07 1017.3
02 05:53 Calm 10.00 Fair CLR 73 70 90% 30.06 1017.0
Date Time (edt) Wind (mph) Vis. (mi.) Weather Sky Cond. Air Dwpt Max. Min. Relative Humidity Wind Chill (°F) Heat Index (°F) altimeter (in) sea level (mb) 1 hr 3 hr 6 hr
6 hour
Temperature (ºF) Pressure Precipitation (in)